»·PEaware :: N206GH KBUR-KSBA

N206GH :: KBUR-KSBA

FLIGHT INFORMATION

Flight Status: Arrived
Operator: Privately registered:
United States
More flights under this callsign
Pilot: Gabor H. (24209)
Aircraft: CESSNA 206 STATIONAIR
(C206)
More flights by this aircraft type
Origin: KBUR Bob Hope-Burbank
United States
Destination: KSBA Santa Barbara Mun
United States
More flights between these airports :: More routes between these airports
Route: +
File this flight plan on PilotEdge
Remarks:
Altitude:
(Current/Filed)
4,500ft
Speed:
(Current/Filed)
0kts
Departed: 17-Nov-20 08:17 PM
Arrived: 17-Nov-20 08:50 PM
Distance/Time
Traveled:
74nm/0:33
Distance/Time
To Go:
Arrived

Flight Plot

Page will automatically refresh every two minutes.


Map Options




Map Legend


Flown Route
Filed Route
Departure Airport
Arrival Airport
Navaid (VOR, NDB)
Fix

Horizontal Profiles

Position Reports

Time Latitude Longitude Heading Altitude Ground
Speed
17-Nov-20 20:00 34.200832 -118.361015 26 780ft 0kts
17-Nov-20 20:01 34.200832 -118.361015 26 780ft 0kts
17-Nov-20 20:02 34.200832 -118.361015 26 780ft 0kts
17-Nov-20 20:03 34.200832 -118.361015 26 780ft 0kts
17-Nov-20 20:04 34.200832 -118.361015 26 780ft 0kts
17-Nov-20 20:05 34.200832 -118.361015 26 780ft 0kts
17-Nov-20 20:06 34.200832 -118.361015 26 780ft 0kts
17-Nov-20 20:08 34.200832 -118.361015 26 780ft 0kts
17-Nov-20 20:09 34.200832 -118.361015 26 780ft 0kts
17-Nov-20 20:10 34.200832 -118.361015 26 780ft 0kts
17-Nov-20 20:11 34.200965 -118.360976 4 780ft 7kts
17-Nov-20 20:12 34.202209 -118.360165 90 780ft 0kts
17-Nov-20 20:13 34.202209 -118.360165 90 780ft 0kts
17-Nov-20 20:14 34.201986 -118.358763 168 780ft 16kts
17-Nov-20 20:15 34.198926 -118.357756 136 780ft 0kts
17-Nov-20 20:16 34.199306 -118.356887 347 780ft 15kts
17-Nov-20 20:17 34.215299 -118.368322 307 1540ft 75kts
17-Nov-20 20:18 34.223133 -118.390883 281 2598ft 65kts
17-Nov-20 20:19 34.224542 -118.423793 271 3299ft 110kts
17-Nov-20 20:20 34.226788 -118.459845 277 4386ft 107kts
17-Nov-20 20:21 34.238367 -118.501894 285 4501ft 147kts
17-Nov-20 20:22 34.251929 -118.550316 286 4499ft 154kts
17-Nov-20 20:23 34.265805 -118.600037 286 4504ft 157kts
17-Nov-20 20:24 34.275639 -118.651216 275 4504ft 157kts
17-Nov-20 20:25 34.282471 -118.703735 275 4503ft 158kts
17-Nov-20 20:26 34.289347 -118.756303 275 4501ft 158kts
17-Nov-20 20:27 34.296211 -118.808928 274 4499ft 157kts
17-Nov-20 20:27 34.299560 -118.852753 271 4481ft 157kts
17-Nov-20 20:29 34.304063 -118.914136 271 4481ft 156kts
17-Nov-20 20:29 34.307272 -118.957808 271 4481ft 156kts
17-Nov-20 20:31 34.311783 -119.019148 271 4481ft 156kts
17-Nov-20 20:31 34.315000 -119.062850 271 4481ft 156kts
17-Nov-20 20:32 34.318856 -119.115092 271 4481ft 156kts
17-Nov-20 20:33 34.322700 -119.167265 271 4481ft 155kts
17-Nov-20 20:35 34.333206 -119.226912 291 4481ft 158kts
17-Nov-20 20:35 34.348754 -119.267004 292 4481ft 158kts
17-Nov-20 20:36 34.366839 -119.315865 282 4480ft 156kts
17-Nov-20 20:37 34.377875 -119.366771 283 4481ft 156kts
17-Nov-20 20:38 34.390093 -119.417540 283 4481ft 157kts
17-Nov-20 20:39 34.402490 -119.468460 284 4023ft 157kts
17-Nov-20 20:40 34.415169 -119.519099 284 3518ft 156kts
17-Nov-20 20:41 34.427391 -119.569038 284 2971ft 150kts
17-Nov-20 20:42 34.438698 -119.616396 284 2349ft 141kts
17-Nov-20 20:43 34.448556 -119.662460 280 1870ft 143kts
17-Nov-20 20:44 34.454294 -119.711646 275 1414ft 150kts
17-Nov-20 20:45 34.457360 -119.756091 274 1049ft 112kts
17-Nov-20 20:46 34.459758 -119.793881 271 1087ft 107kts
17-Nov-20 20:47 34.456839 -119.827304 261 895ft 94kts
17-Nov-20 20:48 34.444524 -119.843096 179 509ft 71kts
17-Nov-20 20:49 34.427380 -119.839322 167 17ft 27kts
17-Nov-20 20:50 34.425773 -119.838080 168 17ft 20kts
17-Nov-20 20:51 34.420991 -119.836685 165 17ft 13kts
17-Nov-20 20:52 34.420572 -119.835509 205 17ft 0kts
17-Nov-20 20:53 34.420572 -119.835508 205 17ft 0kts
17-Nov-20 20:54 34.420572 -119.835508 205 17ft 0kts
17-Nov-20 20:55 34.420572 -119.835508 205 17ft 0kts
17-Nov-20 20:56 34.420572 -119.835508 205 17ft 0kts
17-Nov-20 20:57 34.420572 -119.835508 205 17ft 0kts
17-Nov-20 20:58 34.420572 -119.835508 205 17ft 0kts

Navigation Log

Ident Type
Flight plan parsing failed, navigation log unavailable